createdAt,value
2017-08-20T00:01:38.317Z,16.45
2017-08-20T00:04:06.279Z,16.46
2017-08-20T00:06:33.859Z,16.48
2017-08-20T00:09:01.436Z,16.47
2017-08-20T00:11:29.128Z,16.47
2017-08-20T00:13:56.720Z,16.48
2017-08-20T00:16:24.690Z,16.45
2017-08-20T00:18:52.298Z,16.43
2017-08-20T00:21:19.889Z,16.43
2017-08-20T00:23:47.508Z,16.42
2017-08-20T00:26:15.088Z,16.38
2017-08-20T00:28:42.696Z,16.40
2017-08-20T00:31:10.292Z,16.39
2017-08-20T00:33:38.206Z,16.38
2017-08-20T00:36:05.806Z,16.36
2017-08-20T00:38:33.403Z,16.36
2017-08-20T00:41:01.011Z,16.36
2017-08-20T00:43:28.593Z,16.36
2017-08-20T00:45:56.377Z,16.38
2017-08-20T00:48:23.964Z,16.37
2017-08-20T00:50:51.848Z,16.36
2017-08-20T00:53:19.428Z,16.37
2017-08-20T00:55:46.996Z,16.39
2017-08-20T00:58:14.759Z,16.37
2017-08-20T01:00:42.330Z,16.36
2017-08-20T01:03:09.945Z,16.39
2017-08-20T01:05:37.533Z,16.38
2017-08-20T01:08:05.491Z,16.37
2017-08-20T01:10:33.077Z,16.38
2017-08-20T01:13:00.667Z,16.43
2017-08-20T01:15:28.256Z,16.45
2017-08-20T01:17:55.832Z,16.44
2017-08-20T01:20:23.431Z,16.47
2017-08-20T01:22:51.009Z,16.47
2017-08-20T01:25:18.928Z,16.46
2017-08-20T01:27:46.512Z,16.46
2017-08-20T01:30:14.085Z,16.46
2017-08-20T01:32:41.712Z,16.46
2017-08-20T01:35:09.297Z,16.47
2017-08-20T01:37:36.894Z,16.47
2017-08-20T01:40:04.489Z,16.47
2017-08-20T01:42:32.075Z,16.45
2017-08-20T01:44:59.693Z,16.45
2017-08-20T01:47:27.427Z,16.39
2017-08-20T01:49:55.129Z,16.37
2017-08-20T01:52:22.765Z,16.34
2017-08-20T01:54:50.685Z,16.30
2017-08-20T01:57:18.318Z,16.26
2017-08-20T01:59:45.906Z,16.24
2017-08-20T02:02:13.508Z,16.19
2017-08-20T02:04:41.817Z,16.12
2017-08-20T02:07:09.789Z,16.08
2017-08-20T02:09:37.362Z,16.05
2017-08-20T02:12:04.943Z,16.02
2017-08-20T02:14:32.555Z,15.99
2017-08-20T02:17:00.141Z,15.93
2017-08-20T02:19:27.742Z,15.86
2017-08-20T02:21:55.319Z,15.77
2017-08-20T02:24:23.220Z,15.72
2017-08-20T02:26:50.806Z,15.73
2017-08-20T02:29:18.409Z,15.69
2017-08-20T02:31:46.018Z,15.66
2017-08-20T02:34:13.614Z,15.62
2017-08-20T02:36:41.221Z,15.57
2017-08-20T02:39:08.920Z,15.53
2017-08-20T02:41:36.526Z,15.47
2017-08-20T02:44:04.144Z,15.47
2017-08-20T02:46:31.739Z,15.50
2017-08-20T02:48:59.343Z,15.52
2017-08-20T02:51:27.074Z,15.53
2017-08-20T02:53:54.959Z,15.52
2017-08-20T02:56:22.548Z,15.52
2017-08-20T02:58:50.107Z,15.50
2017-08-20T03:01:17.715Z,15.52
2017-08-20T03:03:45.304Z,15.53
2017-08-20T03:06:12.899Z,15.54
2017-08-20T03:08:40.546Z,15.52
2017-08-20T03:11:08.177Z,15.51
2017-08-20T03:13:35.797Z,15.51
2017-08-20T03:16:03.706Z,15.49
2017-08-20T03:18:31.294Z,15.45
2017-08-20T03:20:58.875Z,15.40
2017-08-20T03:23:26.483Z,15.40
2017-08-20T03:25:54.066Z,15.39
2017-08-20T03:28:21.673Z,15.38
2017-08-20T03:30:49.245Z,15.36
2017-08-20T03:33:17.266Z,15.32
2017-08-20T03:35:44.848Z,15.32
2017-08-20T03:38:12.427Z,15.31
2017-08-20T03:40:40.053Z,15.29
2017-08-20T03:43:07.660Z,15.25
2017-08-20T03:45:35.272Z,15.21
2017-08-20T03:48:02.846Z,15.16
2017-08-20T03:50:30.445Z,15.14
2017-08-20T03:52:58.031Z,15.10
2017-08-20T03:55:26.019Z,15.04
2017-08-20T03:57:53.591Z,15.02
2017-08-20T04:00:21.171Z,15.00
2017-08-20T04:02:48.812Z,14.93
2017-08-20T04:05:16.400Z,14.87
2017-08-20T04:07:44.017Z,14.85
2017-08-20T04:10:11.595Z,14.78
2017-08-20T04:12:39.539Z,14.71
2017-08-20T04:15:07.130Z,14.67
2017-08-20T04:17:34.746Z,14.59
2017-08-20T04:20:02.370Z,14.56
2017-08-20T04:22:29.948Z,14.52
2017-08-20T04:24:57.570Z,14.50
2017-08-20T04:27:25.171Z,14.49
2017-08-20T04:29:53.085Z,14.45
2017-08-20T04:32:20.659Z,14.46
2017-08-20T04:34:48.294Z,14.45
2017-08-20T04:37:15.883Z,14.47
2017-08-20T04:39:43.474Z,14.48
2017-08-20T04:42:11.091Z,14.48
2017-08-20T04:44:38.839Z,14.47
2017-08-20T04:47:06.899Z,14.46
2017-08-20T04:49:34.500Z,14.52
2017-08-20T04:52:02.283Z,14.55
2017-08-20T04:54:29.981Z,14.56
2017-08-20T04:56:57.574Z,14.57
2017-08-20T04:59:25.168Z,14.53
2017-08-20T05:01:52.791Z,14.50
2017-08-20T05:04:20.700Z,14.53
2017-08-20T05:06:48.294Z,14.48
2017-08-20T05:09:15.890Z,14.51
2017-08-20T05:11:43.500Z,14.56
2017-08-20T05:14:11.080Z,14.61
2017-08-20T05:16:38.694Z,14.64
2017-08-20T05:19:06.286Z,14.65
2017-08-20T05:21:34.329Z,14.67
2017-08-20T05:24:01.911Z,14.72
2017-08-20T05:26:29.551Z,14.79
2017-08-20T05:28:57.483Z,14.81
2017-08-20T05:31:25.048Z,14.84
2017-08-20T05:33:52.649Z,14.84
2017-08-20T05:36:20.254Z,14.82
2017-08-20T05:38:47.830Z,14.82
2017-08-20T05:41:15.433Z,14.87
2017-08-20T05:43:43.011Z,14.90
2017-08-20T05:46:10.606Z,14.97
2017-08-20T05:48:38.168Z,15.06
2017-08-20T05:51:05.787Z,15.00
2017-08-20T05:53:33.369Z,14.96
2017-08-20T05:56:00.945Z,15.05
2017-08-20T05:58:28.541Z,15.20
2017-08-20T06:00:56.117Z,15.25
2017-08-20T06:03:23.716Z,15.35
2017-08-20T06:05:51.328Z,15.41
2017-08-20T06:08:19.039Z,15.48
2017-08-20T06:10:46.652Z,15.53
2017-08-20T06:13:14.249Z,15.56
2017-08-20T06:15:41.842Z,15.50
2017-08-20T06:18:09.450Z,15.48
2017-08-20T06:20:37.483Z,15.48
2017-08-20T06:23:05.087Z,15.44
2017-08-20T06:25:32.708Z,15.44
2017-08-20T06:28:00.308Z,15.40
2017-08-20T06:30:27.921Z,15.41
2017-08-20T06:32:55.542Z,15.46
2017-08-20T06:35:23.242Z,15.49
2017-08-20T06:37:50.945Z,15.50
2017-08-20T06:40:18.544Z,15.56
2017-08-20T06:42:46.178Z,15.65
2017-08-20T06:45:13.792Z,15.68
2017-08-20T06:47:41.384Z,15.71
2017-08-20T06:50:09.028Z,15.77
2017-08-20T06:52:36.594Z,15.83
2017-08-20T06:55:04.182Z,15.90
2017-08-20T06:57:31.871Z,15.97
2017-08-20T06:59:59.495Z,16.00
2017-08-20T07:02:27.161Z,16.10
2017-08-20T07:04:56.133Z,16.22
2017-08-20T07:07:24.157Z,16.28
2017-08-20T07:09:51.742Z,16.29
2017-08-20T07:12:19.446Z,16.41
2017-08-20T07:14:47.069Z,16.50
2017-08-20T07:17:14.880Z,16.61
2017-08-20T07:19:42.512Z,16.68
2017-08-20T07:22:10.130Z,16.78
2017-08-20T07:24:37.852Z,16.80
2017-08-20T07:27:05.469Z,16.84
2017-08-20T07:29:33.037Z,16.90
2017-08-20T07:32:00.657Z,16.93
2017-08-20T07:34:28.269Z,16.85
2017-08-20T07:36:56.249Z,16.90
2017-08-20T07:39:24.026Z,16.99
2017-08-20T07:41:51.640Z,17.11
2017-08-20T07:44:19.282Z,17.18
2017-08-20T07:46:46.973Z,17.31
2017-08-20T07:49:14.685Z,17.44
2017-08-20T07:51:42.265Z,17.51
2017-08-20T07:54:10.181Z,17.57
2017-08-20T07:56:37.768Z,17.63
2017-08-20T07:59:05.383Z,17.62
2017-08-20T08:01:32.993Z,17.64
2017-08-20T08:04:00.568Z,17.62
2017-08-20T08:06:28.188Z,17.64
2017-08-20T08:08:55.932Z,17.67
2017-08-20T08:11:23.659Z,17.65
2017-08-20T08:13:51.282Z,17.65
2017-08-20T08:16:18.874Z,17.70
2017-08-20T08:18:46.476Z,17.76
2017-08-20T08:21:14.071Z,17.86
2017-08-20T08:23:42.198Z,17.91
2017-08-20T08:26:09.816Z,18.00
2017-08-20T08:28:37.533Z,18.10
2017-08-20T08:31:05.164Z,18.21
2017-08-20T08:33:32.768Z,18.33
2017-08-20T08:36:00.374Z,18.31
2017-08-20T08:38:27.964Z,18.32
2017-08-20T08:40:55.629Z,18.43
2017-08-20T08:43:23.217Z,18.48
2017-08-20T08:45:51.048Z,18.41
2017-08-20T08:48:18.649Z,18.35
2017-08-20T08:50:46.283Z,18.39
2017-08-20T08:53:13.864Z,18.47
2017-08-20T08:55:41.478Z,18.54
2017-08-20T08:58:09.061Z,18.65
2017-08-20T09:00:36.675Z,18.74
2017-08-20T09:03:04.285Z,18.76
2017-08-20T09:05:31.897Z,18.86
2017-08-20T09:07:59.653Z,18.93
2017-08-20T09:10:27.345Z,19.02
2017-08-20T09:12:55.000Z,19.09
2017-08-20T09:15:22.620Z,19.15
2017-08-20T09:17:50.610Z,19.32
2017-08-20T09:20:18.215Z,19.46
2017-08-20T09:22:45.807Z,19.65
2017-08-20T09:25:13.432Z,19.71
2017-08-20T09:27:41.030Z,19.76
2017-08-20T09:30:09.042Z,19.71
2017-08-20T09:32:37.214Z,19.63
2017-08-20T09:35:04.849Z,19.47
2017-08-20T09:37:32.537Z,19.52
2017-08-20T09:40:00.131Z,19.66
2017-08-20T09:42:27.747Z,19.62
2017-08-20T09:44:55.346Z,19.56
2017-08-20T09:47:23.652Z,19.70
2017-08-20T09:49:51.269Z,19.85
2017-08-20T09:52:18.971Z,20.03
2017-08-20T09:54:46.601Z,20.06
2017-08-20T09:57:14.205Z,20.19
2017-08-20T09:59:42.308Z,20.21
2017-08-20T10:02:09.883Z,20.23
2017-08-20T10:04:37.478Z,20.02
2017-08-20T10:07:05.297Z,19.87
2017-08-20T10:09:33.079Z,19.83
2017-08-20T10:12:00.693Z,19.84
2017-08-20T10:14:28.307Z,19.96
2017-08-20T10:16:55.949Z,20.19
2017-08-20T10:19:23.586Z,20.38
2017-08-20T10:21:51.159Z,20.44
2017-08-20T10:24:19.122Z,20.48
2017-08-20T10:26:46.740Z,20.58
2017-08-20T10:29:14.479Z,20.41
2017-08-20T10:31:42.116Z,20.43
2017-08-20T10:34:09.718Z,20.51
2017-08-20T10:36:37.342Z,20.63
2017-08-20T10:39:04.942Z,20.84
2017-08-20T10:41:32.837Z,20.85
2017-08-20T10:44:00.516Z,20.83
2017-08-20T10:46:28.118Z,20.82
2017-08-20T10:48:55.752Z,20.77
2017-08-20T10:51:23.375Z,21.00
2017-08-20T10:53:50.981Z,21.14
2017-08-20T10:56:18.586Z,21.21
2017-08-20T10:58:46.185Z,21.05
2017-08-20T11:01:13.772Z,20.91
2017-08-20T11:03:41.600Z,20.61
2017-08-20T11:06:09.259Z,20.57
2017-08-20T11:08:36.856Z,20.69
2017-08-20T11:11:04.503Z,20.77
2017-08-20T11:13:32.093Z,20.66
2017-08-20T11:15:59.809Z,20.62
2017-08-20T11:18:27.633Z,20.80
2017-08-20T11:20:55.203Z,21.01
2017-08-20T11:23:22.827Z,21.01
2017-08-20T11:25:50.426Z,21.26
2017-08-20T11:28:18.037Z,21.31
2017-08-20T11:30:45.659Z,21.33
2017-08-20T11:33:13.676Z,21.19
2017-08-20T11:35:41.361Z,21.01
2017-08-20T11:38:09.032Z,20.75
2017-08-20T11:40:36.793Z,20.50
2017-08-20T11:43:04.411Z,20.30
2017-08-20T11:45:32.061Z,20.34
2017-08-20T11:47:59.661Z,20.56
2017-08-20T11:50:27.264Z,20.74
2017-08-20T11:52:54.863Z,20.97
2017-08-20T11:55:22.556Z,21.12
2017-08-20T11:57:50.755Z,21.09
2017-08-20T12:00:18.578Z,21.02
2017-08-20T12:02:46.285Z,21.00
2017-08-20T12:05:13.878Z,20.88
2017-08-20T12:07:41.497Z,20.86
2017-08-20T12:10:09.079Z,21.08
2017-08-20T12:12:36.714Z,21.27
2017-08-20T12:15:04.418Z,21.23
2017-08-20T12:17:32.034Z,21.08
2017-08-20T12:19:59.631Z,21.00
2017-08-20T12:22:27.273Z,21.31
2017-08-20T12:24:55.075Z,21.60
2017-08-20T12:27:22.974Z,21.73
2017-08-20T12:29:50.601Z,21.73
2017-08-20T12:32:18.211Z,21.59
2017-08-20T12:34:45.812Z,21.47
2017-08-20T12:37:15.581Z,21.27
2017-08-20T12:39:43.184Z,21.34
2017-08-20T12:42:10.845Z,21.40
2017-08-20T12:44:38.473Z,21.52
2017-08-20T12:47:06.072Z,21.62
2017-08-20T12:49:33.700Z,21.62
2017-08-20T12:52:01.387Z,21.72
2017-08-20T12:54:29.412Z,21.84
2017-08-20T12:56:57.007Z,21.92
2017-08-20T12:59:24.611Z,21.95
2017-08-20T13:01:52.674Z,22.12
2017-08-20T13:04:20.926Z,22.28
2017-08-20T13:06:49.262Z,22.37
2017-08-20T13:09:16.963Z,22.30
2017-08-20T13:11:44.584Z,22.24
2017-08-20T13:14:12.269Z,22.05
2017-08-20T13:16:39.891Z,21.92
2017-08-20T13:19:07.868Z,21.94
2017-08-20T13:21:35.471Z,21.74
2017-08-20T13:24:03.089Z,21.73
2017-08-20T13:26:31.052Z,21.66
2017-08-20T13:28:58.643Z,21.61
2017-08-20T13:31:26.311Z,21.45
2017-08-20T13:33:53.970Z,21.34
2017-08-20T13:36:21.589Z,21.19
2017-08-20T13:38:49.200Z,20.99
2017-08-20T13:41:16.829Z,20.81
2017-08-20T13:43:44.578Z,20.68
2017-08-20T13:46:12.187Z,20.52
2017-08-20T13:48:39.834Z,20.44
2017-08-20T13:51:07.460Z,20.35
2017-08-20T13:53:35.923Z,20.28
2017-08-20T13:56:03.533Z,20.20
2017-08-20T13:58:31.153Z,20.19
2017-08-20T14:00:58.765Z,20.21
2017-08-20T14:03:26.795Z,20.28
2017-08-20T14:05:54.470Z,20.41
2017-08-20T14:08:22.095Z,20.57
2017-08-20T14:10:50.727Z,20.65
2017-08-20T14:13:18.318Z,20.79
2017-08-20T14:15:45.940Z,20.94
2017-08-20T14:18:13.605Z,21.10
2017-08-20T14:20:41.244Z,21.70
2017-08-20T14:23:08.827Z,22.24
2017-08-20T14:25:36.833Z,22.59
2017-08-20T14:28:04.668Z,23.02
2017-08-20T14:30:32.476Z,22.99
2017-08-20T14:33:00.216Z,23.24
2017-08-20T14:35:27.834Z,23.09
2017-08-20T14:37:57.449Z,23.46
2017-08-20T14:40:25.044Z,23.80
2017-08-20T14:42:52.690Z,24.16
2017-08-20T14:45:20.328Z,24.43
2017-08-20T14:47:48.029Z,24.57
2017-08-20T14:50:15.906Z,24.70
2017-08-20T14:52:43.605Z,25.04
2017-08-20T14:55:11.203Z,25.31
2017-08-20T14:57:38.910Z,25.69
2017-08-20T15:00:06.707Z,25.76
2017-08-20T15:02:34.419Z,25.18
2017-08-20T15:05:02.138Z,24.80
2017-08-20T15:07:29.755Z,25.01
2017-08-20T15:09:57.809Z,24.79
2017-08-20T15:12:25.510Z,25.01
2017-08-20T15:14:53.662Z,25.37
2017-08-20T15:17:21.287Z,25.25
2017-08-20T15:19:48.908Z,24.92
2017-08-20T15:22:16.654Z,24.48
2017-08-20T15:24:44.308Z,24.66
2017-08-20T15:27:12.094Z,24.79
2017-08-20T15:29:39.718Z,24.82
2017-08-20T15:32:09.252Z,24.97
2017-08-20T15:34:36.872Z,25.20
2017-08-20T15:37:04.497Z,25.29
2017-08-20T15:39:32.103Z,25.24
2017-08-20T15:41:59.715Z,25.23
2017-08-20T15:44:27.534Z,25.04
2017-08-20T15:46:55.631Z,24.96
2017-08-20T15:49:23.568Z,24.82
2017-08-20T15:51:51.264Z,25.03
2017-08-20T15:54:18.884Z,24.97
2017-08-20T15:56:46.601Z,24.95
2017-08-20T15:59:14.224Z,24.82
2017-08-20T16:01:41.824Z,24.79
2017-08-20T16:04:09.415Z,24.48
2017-08-20T16:06:37.021Z,23.85
2017-08-20T16:09:05.035Z,23.33
2017-08-20T16:11:32.672Z,23.34
2017-08-20T16:14:00.330Z,22.93
2017-08-20T16:16:28.156Z,22.33
2017-08-20T16:18:55.793Z,22.13
2017-08-20T16:21:25.488Z,22.06
2017-08-20T16:23:53.067Z,21.90
2017-08-20T16:26:20.654Z,21.71
2017-08-20T16:28:48.252Z,21.51
2017-08-20T16:31:16.270Z,21.50
2017-08-20T16:33:43.866Z,21.50
2017-08-20T16:36:11.463Z,21.39
2017-08-20T16:38:39.378Z,21.39
2017-08-20T16:41:07.359Z,21.27
2017-08-20T16:43:34.976Z,21.23
2017-08-20T16:46:02.793Z,21.15
2017-08-20T16:48:30.401Z,21.18
2017-08-20T16:50:58.505Z,21.09
2017-08-20T16:53:26.128Z,20.98
2017-08-20T16:55:53.856Z,20.91
2017-08-20T16:58:21.452Z,20.85
2017-08-20T17:00:49.400Z,20.79
2017-08-20T17:03:17.020Z,20.70
2017-08-20T17:05:44.652Z,20.63
2017-08-20T17:08:12.312Z,20.64
2017-08-20T17:10:39.932Z,20.53
2017-08-20T17:13:07.562Z,20.44
2017-08-20T17:15:35.177Z,20.40
2017-08-20T17:18:03.517Z,20.31
2017-08-20T17:20:31.492Z,20.29
2017-08-20T17:22:59.083Z,20.28
2017-08-20T17:25:26.696Z,20.23
2017-08-20T17:27:55.716Z,20.21
2017-08-20T17:30:23.369Z,20.19
2017-08-20T17:32:50.986Z,20.13
2017-08-20T17:35:18.704Z,20.04
2017-08-20T17:37:46.380Z,19.99
2017-08-20T17:40:14.326Z,19.90
2017-08-20T17:42:41.985Z,19.86
2017-08-20T17:45:09.645Z,19.80
2017-08-20T17:47:37.676Z,19.75
2017-08-20T17:50:05.508Z,19.67
2017-08-20T17:52:35.334Z,19.61
2017-08-20T17:55:02.981Z,19.57
2017-08-20T17:57:30.984Z,19.53
2017-08-20T17:59:59.005Z,19.50
2017-08-20T18:02:26.628Z,19.44
2017-08-20T18:04:54.304Z,19.37
2017-08-20T18:07:22.437Z,19.30
2017-08-20T18:09:50.452Z,19.21
2017-08-20T18:12:18.201Z,19.16
2017-08-20T18:14:45.934Z,19.11
2017-08-20T18:17:13.574Z,19.07
2017-08-20T18:19:43.463Z,19.01
2017-08-20T18:22:11.152Z,18.98
2017-08-20T18:24:38.783Z,18.97
2017-08-20T18:27:06.390Z,18.93
2017-08-20T18:29:34.019Z,18.90
2017-08-20T18:32:01.743Z,18.86
2017-08-20T18:34:29.391Z,18.80
2017-08-20T18:36:57.034Z,18.73
2017-08-20T18:39:25.086Z,18.68
2017-08-20T18:41:54.410Z,18.62
2017-08-20T18:44:23.769Z,18.57
2017-08-20T18:46:51.577Z,18.48
2017-08-20T18:49:19.201Z,18.39
2017-08-20T18:51:49.409Z,18.34
2017-08-20T18:54:17.003Z,18.31
2017-08-20T18:56:44.744Z,18.26
2017-08-20T18:59:12.364Z,18.21
2017-08-20T19:01:40.011Z,18.17
2017-08-20T19:04:08.123Z,18.13
2017-08-20T19:06:37.169Z,18.10
2017-08-20T19:09:04.806Z,18.08
2017-08-20T19:11:32.408Z,18.03
2017-08-20T19:14:00.134Z,18.00
2017-08-20T19:16:27.763Z,17.99
2017-08-20T19:18:55.758Z,17.98
2017-08-20T19:21:23.355Z,17.97
2017-08-20T19:23:52.396Z,17.94
2017-08-20T19:26:20.047Z,17.89
2017-08-20T19:28:47.688Z,17.85
2017-08-20T19:31:15.308Z,17.82
2017-08-20T19:33:43.006Z,17.80
2017-08-20T19:36:12.159Z,17.76
2017-08-20T19:38:40.348Z,17.70
2017-08-20T19:41:08.270Z,17.63
2017-08-20T19:43:35.997Z,17.58
2017-08-20T19:46:03.608Z,17.56
2017-08-20T19:48:31.230Z,17.54
2017-08-20T19:50:58.932Z,17.53
2017-08-20T19:53:26.975Z,17.52
2017-08-20T19:55:54.571Z,17.48
2017-08-20T19:58:22.173Z,17.46
2017-08-20T20:00:49.827Z,17.39
2017-08-20T20:03:17.448Z,17.30
2017-08-20T20:05:45.202Z,17.26
2017-08-20T20:08:12.790Z,17.23
2017-08-20T20:10:40.788Z,17.22
2017-08-20T20:13:08.389Z,17.19
2017-08-20T20:15:36.017Z,17.14
2017-08-20T20:18:03.874Z,17.06
2017-08-20T20:20:31.599Z,16.98
2017-08-20T20:22:59.320Z,16.88
2017-08-20T20:25:26.921Z,16.81
2017-08-20T20:27:54.521Z,16.75
2017-08-20T20:30:22.139Z,16.68
2017-08-20T20:32:49.749Z,16.63
2017-08-20T20:35:17.380Z,16.63
2017-08-20T20:37:45.128Z,16.61
2017-08-20T20:40:13.015Z,16.58
2017-08-20T20:42:40.714Z,16.58
2017-08-20T20:45:08.430Z,16.54
2017-08-20T20:47:36.063Z,16.51
2017-08-20T20:50:03.676Z,16.51
2017-08-20T20:52:31.485Z,16.49
2017-08-20T20:54:59.201Z,16.44
2017-08-20T20:57:27.182Z,16.42
2017-08-20T20:59:54.784Z,16.40
2017-08-20T21:02:22.415Z,16.41
2017-08-20T21:04:50.210Z,16.39
2017-08-20T21:07:17.815Z,16.38
2017-08-20T21:09:45.437Z,16.35
2017-08-20T21:12:13.118Z,16.36
2017-08-20T21:14:40.742Z,16.33
2017-08-20T21:17:08.337Z,16.31
2017-08-20T21:19:36.325Z,16.27
2017-08-20T21:22:03.920Z,16.27
2017-08-20T21:24:31.697Z,16.26
2017-08-20T21:26:59.337Z,16.26
2017-08-20T21:29:26.941Z,16.25
2017-08-20T21:31:54.641Z,16.26
2017-08-20T21:34:22.244Z,16.25
2017-08-20T21:36:50.185Z,16.23
2017-08-20T21:39:17.965Z,16.20
2017-08-20T21:41:45.569Z,16.17
2017-08-20T21:44:13.236Z,16.17
2017-08-20T21:46:40.976Z,16.18
2017-08-20T21:49:08.618Z,16.17
2017-08-20T21:51:36.238Z,16.17
2017-08-20T21:54:03.857Z,16.14
2017-08-20T21:56:31.467Z,16.08
2017-08-20T21:58:59.352Z,16.02
2017-08-20T22:01:26.953Z,15.97
2017-08-20T22:03:54.536Z,15.92
2017-08-20T22:06:22.167Z,15.87
2017-08-20T22:08:49.767Z,15.82
2017-08-20T22:11:17.681Z,15.78
2017-08-20T22:13:45.429Z,15.72
2017-08-20T22:16:13.020Z,15.70
2017-08-20T22:18:40.643Z,15.68
2017-08-20T22:21:08.248Z,15.67
2017-08-20T22:23:36.130Z,15.68
2017-08-20T22:26:03.731Z,15.69
2017-08-20T22:28:31.344Z,15.68
2017-08-20T22:30:59.092Z,15.68
2017-08-20T22:33:26.700Z,15.67
2017-08-20T22:35:54.351Z,15.67
2017-08-20T22:38:21.965Z,15.66
2017-08-20T22:40:49.923Z,15.64
2017-08-20T22:43:17.524Z,15.62
2017-08-20T22:45:45.134Z,15.58
2017-08-20T22:48:12.930Z,15.55
2017-08-20T22:50:40.527Z,15.55
2017-08-20T22:53:08.171Z,15.50
2017-08-20T22:55:35.945Z,15.49
2017-08-20T22:58:04.027Z,15.48
2017-08-20T23:00:31.635Z,15.45
2017-08-20T23:02:59.270Z,15.45
2017-08-20T23:05:26.909Z,15.41
2017-08-20T23:07:55.786Z,15.41
2017-08-20T23:10:23.391Z,15.40
2017-08-20T23:12:51.043Z,15.38
2017-08-20T23:15:18.733Z,15.35
2017-08-20T23:17:46.336Z,15.31
2017-08-20T23:20:14.425Z,15.27
2017-08-20T23:22:42.013Z,15.25
2017-08-20T23:25:09.756Z,15.23
2017-08-20T23:27:37.394Z,15.20
2017-08-20T23:30:05.015Z,15.21
2017-08-20T23:32:34.505Z,15.24
2017-08-20T23:35:02.112Z,15.22
2017-08-20T23:37:30.274Z,15.23
2017-08-20T23:39:57.842Z,15.21
2017-08-20T23:42:25.435Z,15.20
2017-08-20T23:44:53.051Z,15.22
2017-08-20T23:47:20.660Z,15.20
2017-08-20T23:49:48.289Z,15.19
2017-08-20T23:52:15.875Z,15.17
2017-08-20T23:54:43.497Z,15.15
2017-08-20T23:57:11.079Z,15.12
2017-08-20T23:59:38.678Z,15.10
